createdAt,value
2023-04-19T00:01:26.491Z,100136.91
2023-04-19T00:03:59.227Z,100139.75
2023-04-19T00:06:32.062Z,100142.60
2023-04-19T00:09:05.457Z,100140.38
2023-04-19T00:11:38.010Z,100132.02
2023-04-19T00:14:10.552Z,100140.43
2023-04-19T00:16:43.117Z,100134.14
2023-04-19T00:19:15.705Z,100136.84
2023-04-19T00:21:48.388Z,100132.64
2023-04-19T00:24:21.190Z,100125.03
2023-04-19T00:26:54.083Z,100125.52
2023-04-19T00:29:27.544Z,100126.88
2023-04-19T00:32:00.043Z,100128.50
2023-04-19T00:34:33.284Z,100120.01
2023-04-19T00:37:06.849Z,100117.92
2023-04-19T00:39:39.394Z,100115.86
2023-04-19T00:42:11.835Z,100115.75
2023-04-19T00:44:45.176Z,100106.52
2023-04-19T00:47:17.634Z,100111.25
2023-04-19T00:49:50.251Z,100110.16
2023-04-19T00:52:23.617Z,100108.59
2023-04-19T00:54:56.093Z,100108.72
2023-04-19T00:57:28.618Z,100106.01
2023-04-19T01:00:01.157Z,100103.78
2023-04-19T01:02:34.536Z,100101.20
2023-04-19T01:05:08.189Z,100095.78
2023-04-19T01:07:40.839Z,100102.21
2023-04-19T01:10:13.436Z,100092.38
2023-04-19T01:12:46.758Z,100089.80
2023-04-19T01:15:19.298Z,100091.37
2023-04-19T01:17:53.511Z,100091.23
2023-04-19T01:20:26.998Z,100081.97
2023-04-19T01:23:00.117Z,100082.09
2023-04-19T01:25:33.128Z,100082.58
2023-04-19T01:28:06.750Z,100085.81
2023-04-19T01:30:39.469Z,100081.02
2023-04-19T01:33:12.116Z,100083.50
2023-04-19T01:35:45.173Z,100077.00
2023-04-19T01:38:19.074Z,100079.62
2023-04-19T01:40:51.676Z,100079.89
2023-04-19T01:43:24.129Z,100076.09
2023-04-19T01:45:57.013Z,100080.56
2023-04-19T01:48:29.430Z,100077.21
2023-04-19T01:51:02.146Z,100068.03
2023-04-19T01:53:34.941Z,100068.30
2023-04-19T01:56:08.593Z,100067.34
2023-04-19T01:58:42.165Z,100072.67
2023-04-19T02:01:14.881Z,100063.94
2023-04-19T02:03:47.540Z,100066.55
2023-04-19T02:06:20.021Z,100072.23
2023-04-19T02:08:54.567Z,100070.41
2023-04-19T02:11:28.179Z,100072.28
2023-04-19T02:14:01.080Z,100068.39
2023-04-19T02:16:35.758Z,100068.91
2023-04-19T02:19:20.306Z,100061.09
2023-04-19T02:21:55.520Z,100061.77
2023-04-19T02:24:28.493Z,100059.83
2023-04-19T02:27:02.253Z,100060.13
2023-04-19T02:29:46.766Z,100054.70
2023-04-19T02:32:19.191Z,100060.15
2023-04-19T02:34:52.231Z,100062.88
2023-04-19T02:37:24.727Z,100060.43
2023-04-19T02:39:57.385Z,100065.13
2023-04-19T02:42:29.898Z,100059.33
2023-04-19T02:45:02.321Z,100064.03
2023-04-19T02:47:34.891Z,100062.80
2023-04-19T02:50:08.350Z,100066.47
2023-04-19T02:52:42.962Z,100064.89
2023-04-19T02:55:15.501Z,100061.44
2023-04-19T02:57:48.544Z,100063.91
2023-04-19T03:00:21.181Z,100064.69
2023-04-19T03:02:56.301Z,100070.70
2023-04-19T03:05:28.754Z,100065.06
2023-04-19T03:08:01.399Z,100066.89
2023-04-19T03:10:34.198Z,100065.41
2023-04-19T03:13:07.159Z,100063.45
2023-04-19T03:15:40.059Z,100065.39
2023-04-19T03:18:13.302Z,100064.78
2023-04-19T03:20:46.920Z,100057.03
2023-04-19T03:23:19.283Z,100054.68
2023-04-19T03:25:52.071Z,100055.17
2023-04-19T03:28:26.107Z,100050.86
2023-04-19T03:31:00.156Z,100046.42
2023-04-19T03:33:33.006Z,100053.41
2023-04-19T03:36:06.191Z,100049.20
2023-04-19T03:38:39.173Z,100052.75
2023-04-19T03:41:26.906Z,100049.66
2023-04-19T03:44:06.950Z,100048.27
2023-04-19T03:46:40.801Z,100048.11
2023-04-19T03:49:13.694Z,100042.91
2023-04-19T03:51:47.360Z,100038.33
2023-04-19T03:54:20.099Z,100041.22
2023-04-19T03:56:52.510Z,100043.41
2023-04-19T03:59:34.473Z,100039.52
2023-04-19T04:02:08.839Z,100047.47
2023-04-19T04:04:41.940Z,100050.30
2023-04-19T04:07:14.618Z,100048.30
2023-04-19T04:09:49.240Z,100049.03
2023-04-19T04:12:21.837Z,100048.77
2023-04-19T04:14:56.026Z,100045.53
2023-04-19T04:17:28.841Z,100047.97
2023-04-19T04:20:01.683Z,100041.06
2023-04-19T04:22:35.630Z,100045.00
2023-04-19T04:25:08.933Z,100045.08
2023-04-19T04:27:47.974Z,100044.95
2023-04-19T04:30:21.993Z,100044.33
2023-04-19T04:32:56.481Z,100038.16
2023-04-19T04:35:30.205Z,100041.44
2023-04-19T04:38:17.478Z,100038.70
2023-04-19T04:40:42.311Z,100038.59
2023-04-19T04:43:14.799Z,100037.85
2023-04-19T04:45:47.491Z,100045.87
2023-04-19T04:48:20.420Z,100044.42
2023-04-19T04:50:52.986Z,100052.00
2023-04-19T04:53:28.564Z,100052.15
2023-04-19T04:56:01.016Z,100054.59
2023-04-19T04:58:34.541Z,100055.83
2023-04-19T05:01:08.859Z,100054.20
2023-04-19T05:03:43.258Z,100054.35
2023-04-19T05:06:17.518Z,100049.97
2023-04-19T05:08:50.131Z,100049.97
2023-04-19T05:11:24.447Z,100050.59
2023-04-19T05:13:57.379Z,100051.23
2023-04-19T05:16:30.156Z,100041.62
2023-04-19T05:19:02.668Z,100045.47
2023-04-19T05:21:37.469Z,100044.64
2023-04-19T05:24:10.371Z,100049.50
2023-04-19T05:26:43.328Z,100050.19
2023-04-19T05:29:16.589Z,100044.36
2023-04-19T05:31:54.052Z,100048.88
2023-04-19T05:34:31.585Z,100052.17
2023-04-19T05:37:06.701Z,100052.88
2023-04-19T05:39:39.213Z,100053.29
2023-04-19T05:42:12.037Z,100053.32
2023-04-19T05:44:45.440Z,100045.36
2023-04-19T05:47:18.444Z,100034.67
2023-04-19T05:49:59.121Z,100042.72
2023-04-19T05:52:39.537Z,100052.17
2023-04-19T05:55:12.661Z,100051.54
2023-04-19T05:57:46.510Z,100058.41
2023-04-19T06:00:19.192Z,100062.52
2023-04-19T06:02:53.650Z,100065.25
2023-04-19T06:05:26.849Z,100062.52
2023-04-19T06:08:02.732Z,100059.83
2023-04-19T06:10:51.837Z,100053.38
2023-04-19T06:13:11.995Z,100052.33
2023-04-19T06:15:45.608Z,100055.46
2023-04-19T06:18:18.765Z,100049.66
2023-04-19T06:20:53.429Z,100048.97
2023-04-19T06:23:27.079Z,100036.67
2023-04-19T06:25:59.571Z,100037.51
2023-04-19T06:28:32.814Z,100037.31
2023-04-19T06:31:05.960Z,100040.85
2023-04-19T06:33:38.986Z,100042.20
2023-04-19T06:36:11.598Z,100038.48
2023-04-19T06:38:44.796Z,100040.05
2023-04-19T06:41:17.965Z,100041.97
2023-04-19T06:43:50.488Z,100041.64
2023-04-19T06:46:23.003Z,100038.59
2023-04-19T06:48:55.617Z,100036.34
2023-04-19T06:51:28.150Z,100039.63
2023-04-19T06:54:00.811Z,100034.65
2023-04-19T06:56:50.663Z,100034.77
2023-04-19T06:59:23.487Z,100034.58
2023-04-19T07:01:57.732Z,100037.42
2023-04-19T07:04:30.442Z,100028.97
2023-04-19T07:07:03.042Z,100031.52
2023-04-19T07:09:35.423Z,100029.66
2023-04-19T07:12:08.512Z,100035.57
2023-04-19T07:14:41.007Z,100028.05
2023-04-19T07:17:14.657Z,100025.39
2023-04-19T07:19:51.712Z,100029.84
2023-04-19T07:22:24.155Z,100024.86
2023-04-19T07:24:56.618Z,100017.31
2023-04-19T07:27:29.474Z,100022.41
2023-04-19T07:30:02.060Z,100016.37
2023-04-19T07:32:35.281Z,100027.03
2023-04-19T07:35:08.693Z,100024.37
2023-04-19T07:37:41.790Z,100025.78
2023-04-19T07:40:35.979Z,100012.88
2023-04-19T07:43:08.474Z,100020.75
2023-04-19T07:45:40.946Z,100011.86
2023-04-19T07:48:15.400Z,100020.20
2023-04-19T07:50:48.430Z,100020.58
2023-04-19T07:53:20.920Z,100023.36
2023-04-19T07:55:53.484Z,100024.85
2023-04-19T07:58:27.144Z,100022.59
2023-04-19T08:00:59.537Z,100012.86
2023-04-19T08:03:37.244Z,100021.01
2023-04-19T08:06:10.244Z,100022.16
2023-04-19T08:08:42.932Z,100017.41
2023-04-19T08:11:15.706Z,100008.79
2023-04-19T08:14:02.906Z,100013.64
2023-04-19T08:16:59.195Z,100003.41
2023-04-19T08:18:56.747Z,100009.20
2023-04-19T08:21:40.125Z,100004.91
2023-04-19T08:24:03.293Z,100002.19
2023-04-19T08:26:35.965Z,100009.29
2023-04-19T08:29:08.573Z,100004.61
2023-04-19T08:31:43.471Z,100007.48
2023-04-19T08:34:15.554Z,99999.20
2023-04-19T08:36:59.916Z,99998.17
2023-04-19T08:39:32.345Z,99993.99
2023-04-19T08:42:07.069Z,99990.80
2023-04-19T08:44:36.739Z,99978.86
2023-04-19T08:47:08.243Z,99985.46
2023-04-19T08:49:43.362Z,99984.53
2023-04-19T08:52:16.466Z,99981.13
2023-04-19T08:54:49.305Z,99991.34
2023-04-19T08:57:34.114Z,99983.60
2023-04-19T09:00:08.651Z,99980.83
2023-04-19T09:02:49.812Z,99981.91
2023-04-19T09:05:22.752Z,99991.40
2023-04-19T09:07:56.227Z,99979.34
2023-04-19T09:10:28.998Z,99983.34
2023-04-19T09:13:07.754Z,99981.45
2023-04-19T09:15:43.688Z,99968.97
2023-04-19T09:18:16.703Z,99977.18
2023-04-19T09:20:49.236Z,99977.45
2023-04-19T09:23:21.910Z,99975.59
2023-04-19T09:28:37.279Z,99973.50
2023-04-19T09:31:39.182Z,99973.50
2023-04-19T09:33:50.196Z,99975.41
2023-04-19T09:36:33.800Z,99988.91
2023-04-19T09:39:06.418Z,99980.43
2023-04-19T09:41:53.824Z,99988.21
2023-04-19T09:47:00.563Z,99983.35
2023-04-19T09:52:07.620Z,99991.13
2023-04-19T09:54:40.173Z,99980.42
2023-04-19T09:57:12.672Z,99978.19
2023-04-19T09:59:45.312Z,99974.23
2023-04-19T10:02:17.843Z,99965.11
2023-04-19T10:07:30.546Z,99962.27
2023-04-19T10:10:11.671Z,99973.60
2023-04-19T10:15:33.784Z,99967.09
2023-04-19T10:18:02.879Z,99974.81
2023-04-19T10:20:59.018Z,99979.23
2023-04-19T10:23:31.609Z,99980.27
2023-04-19T10:26:04.336Z,99979.69
2023-04-19T10:28:38.837Z,99981.59
2023-04-19T10:31:13.294Z,99981.73
2023-04-19T10:33:44.979Z,99996.50
2023-04-19T10:36:17.860Z,99979.41
2023-04-19T10:38:52.152Z,99981.44
2023-04-19T10:41:23.776Z,99985.48
2023-04-19T10:44:01.583Z,99977.63
2023-04-19T10:46:36.975Z,99980.42
2023-04-19T10:49:10.213Z,99978.39
2023-04-19T10:51:44.257Z,99973.03
2023-04-19T10:54:35.964Z,99981.05
2023-04-19T10:57:11.540Z,99981.73
2023-04-19T10:59:44.516Z,99986.86
2023-04-19T11:02:30.960Z,99994.10
2023-04-19T11:05:03.636Z,99985.17
2023-04-19T11:07:39.571Z,99987.63
2023-04-19T11:10:11.886Z,99996.34
2023-04-19T11:12:44.488Z,99999.58
2023-04-19T11:15:16.205Z,99992.44
2023-04-19T11:18:08.860Z,99987.27
2023-04-19T11:20:26.346Z,99983.73
2023-04-19T11:22:59.796Z,99991.80
2023-04-19T11:25:34.195Z,99976.94
2023-04-19T11:28:07.014Z,99991.28
2023-04-19T11:30:38.658Z,99990.80
2023-04-19T11:33:10.464Z,100006.69
2023-04-19T11:35:43.811Z,99997.72
2023-04-19T11:38:15.567Z,99997.00
2023-04-19T11:40:47.325Z,99996.68
2023-04-19T11:43:19.569Z,99990.88
2023-04-19T11:45:51.169Z,99998.91
2023-04-19T11:48:23.143Z,100008.93
2023-04-19T11:50:54.832Z,100012.81
2023-04-19T11:53:27.510Z,100009.39
2023-04-19T11:56:06.627Z,100011.36
2023-04-19T11:58:51.499Z,99999.95
2023-04-19T12:01:25.234Z,100007.95
2023-04-19T12:03:57.799Z,100013.59
2023-04-19T12:06:32.056Z,100009.81
2023-04-19T12:09:07.241Z,99997.90
2023-04-19T12:11:52.860Z,99998.41
2023-04-19T12:14:26.178Z,100001.79
2023-04-19T12:17:15.762Z,100000.98
2023-04-19T12:19:48.196Z,99989.75
2023-04-19T12:22:25.076Z,99995.70
2023-04-19T12:24:56.727Z,99987.97
2023-04-19T12:27:28.318Z,99997.38
2023-04-19T12:30:00.153Z,99999.69
2023-04-19T12:32:32.382Z,100008.03
2023-04-19T12:35:03.962Z,100012.28
2023-04-19T12:37:35.768Z,100007.58
2023-04-19T12:40:08.962Z,100005.39
2023-04-19T12:42:40.801Z,100018.46
2023-04-19T12:45:13.235Z,100014.58
2023-04-19T12:47:45.319Z,100016.86
2023-04-19T12:50:17.163Z,100016.61
2023-04-19T12:52:48.898Z,100021.01
2023-04-19T12:55:20.843Z,100010.62
2023-04-19T12:57:52.457Z,100016.48
2023-04-19T13:00:24.819Z,100023.19
2023-04-19T13:02:56.800Z,100021.67
2023-04-19T13:05:28.517Z,100021.34
2023-04-19T13:08:00.448Z,100020.69
2023-04-19T13:10:32.524Z,100020.86
2023-04-19T13:13:04.196Z,100024.48
2023-04-19T13:15:35.798Z,100022.78
2023-04-19T13:18:07.828Z,100029.33
2023-04-19T13:20:39.777Z,100026.44
2023-04-19T13:23:11.819Z,100028.48
2023-04-19T13:25:43.390Z,100029.34
2023-04-19T13:28:15.282Z,100036.03
2023-04-19T13:30:46.970Z,100027.69
2023-04-19T13:33:18.583Z,100028.53
2023-04-19T13:35:50.173Z,100033.85
2023-04-19T13:38:21.930Z,100032.16
2023-04-19T13:40:53.785Z,100035.41
2023-04-19T13:43:25.326Z,100039.53
2023-04-19T13:45:57.172Z,100038.69
2023-04-19T13:48:29.185Z,100045.38
2023-04-19T13:53:45.113Z,100034.42
2023-04-19T13:56:16.757Z,100032.55
2023-04-19T13:58:48.384Z,100025.73
2023-04-19T14:01:20.482Z,100032.73
2023-04-19T14:03:52.296Z,100028.45
2023-04-19T14:06:24.117Z,100034.61
2023-04-19T14:08:56.351Z,100042.16
2023-04-19T14:11:28.083Z,100042.12
2023-04-19T14:14:00.550Z,100055.32
2023-04-19T14:16:32.279Z,100058.20
2023-04-19T14:19:04.210Z,100054.45
2023-04-19T14:21:35.743Z,100053.25
2023-04-19T14:24:08.172Z,100059.22
2023-04-19T14:26:39.947Z,100048.62
2023-04-19T14:29:11.685Z,100051.03
2023-04-19T14:31:43.576Z,100047.57
2023-04-19T14:34:15.233Z,100053.37
2023-04-19T14:36:47.607Z,100051.14
2023-04-19T14:39:20.405Z,100048.03
2023-04-19T14:41:52.265Z,100048.53
2023-04-19T14:44:24.153Z,100038.47
2023-04-19T14:46:56.430Z,100040.67
2023-04-19T14:49:28.221Z,100047.66
2023-04-19T14:52:00.123Z,100047.50
2023-04-19T14:54:31.824Z,100047.33
2023-04-19T14:57:03.950Z,100048.70
2023-04-19T14:59:35.719Z,100039.64
2023-04-19T15:02:07.806Z,100048.86
2023-04-19T15:04:41.529Z,100047.83
2023-04-19T15:07:14.468Z,100045.09
2023-04-19T15:09:46.105Z,100048.16
2023-04-19T15:12:17.957Z,100044.94
2023-04-19T15:14:49.904Z,100049.89
2023-04-19T15:17:21.930Z,100056.56
2023-04-19T15:19:53.986Z,100049.89
2023-04-19T15:22:25.836Z,100046.47
2023-04-19T15:24:57.960Z,100047.50
2023-04-19T15:27:29.533Z,100046.12
2023-04-19T15:30:01.122Z,100034.33
2023-04-19T15:32:34.631Z,100036.56
2023-04-19T15:35:07.006Z,100037.94
2023-04-19T15:37:40.436Z,100034.17
2023-04-19T15:40:14.331Z,100029.20
2023-04-19T15:42:46.557Z,100032.64
2023-04-19T15:45:18.773Z,100035.38
2023-04-19T15:47:50.732Z,100032.30
2023-04-19T15:50:22.696Z,100036.03
2023-04-19T15:52:54.502Z,100030.07
2023-04-19T15:55:26.530Z,100028.38
2023-04-19T15:57:58.106Z,100030.23
2023-04-19T16:00:30.318Z,100027.17
2023-04-19T16:03:02.065Z,100027.50
2023-04-19T16:05:34.689Z,100032.59
2023-04-19T16:08:08.295Z,100032.10
2023-04-19T16:10:41.017Z,100039.95
2023-04-19T16:13:16.010Z,100033.80
2023-04-19T16:15:48.027Z,100037.39
2023-04-19T16:18:19.764Z,100031.55
2023-04-19T16:20:51.478Z,100030.36
2023-04-19T16:23:25.167Z,100028.33
2023-04-19T16:25:57.291Z,100033.95
2023-04-19T16:28:29.678Z,100038.03
2023-04-19T16:31:01.451Z,100041.93
2023-04-19T16:33:33.278Z,100036.80
2023-04-19T16:36:05.016Z,100045.67
2023-04-19T16:38:36.944Z,100045.31
2023-04-19T16:41:08.584Z,100049.06
2023-04-19T16:43:40.191Z,100056.92
2023-04-19T16:46:12.369Z,100057.58
2023-04-19T16:48:44.333Z,100061.34
2023-04-19T16:51:15.910Z,100058.60
2023-04-19T16:53:47.911Z,100058.40
2023-04-19T16:56:19.768Z,100058.39
2023-04-19T16:58:51.775Z,100068.47
2023-04-19T17:01:24.037Z,100065.20
2023-04-19T17:03:56.240Z,100068.42
2023-04-19T17:06:28.793Z,100073.38
2023-04-19T17:09:04.140Z,100078.50
2023-04-19T17:11:36.269Z,100080.03
2023-04-19T17:14:08.007Z,100080.53
2023-04-19T17:16:41.039Z,100085.64
2023-04-19T17:19:13.015Z,100096.72
2023-04-19T17:21:45.554Z,100096.35
2023-04-19T17:24:18.196Z,100106.06
2023-04-19T17:26:50.282Z,100104.19
2023-04-19T17:29:21.950Z,100109.47
2023-04-19T17:31:53.844Z,100114.21
2023-04-19T17:34:26.078Z,100108.20
2023-04-19T17:36:59.459Z,100116.05
2023-04-19T17:39:31.910Z,100111.94
2023-04-19T17:42:04.854Z,100116.03
2023-04-19T17:44:37.169Z,100116.38
2023-04-19T17:47:08.776Z,100130.88
2023-04-19T17:49:51.109Z,100136.83
2023-04-19T17:52:22.613Z,100125.09
2023-04-19T17:54:54.226Z,100141.95
2023-04-19T17:57:28.357Z,100136.98
2023-04-19T18:00:00.507Z,100143.09
2023-04-19T18:02:33.099Z,100147.50
2023-04-19T18:05:05.135Z,100146.12
2023-04-19T18:07:37.735Z,100146.92
2023-04-19T18:10:11.390Z,100153.02
2023-04-19T18:12:45.413Z,100159.80
2023-04-19T18:15:16.998Z,100153.77
2023-04-19T18:17:49.392Z,100156.77
2023-04-19T18:20:21.537Z,100139.33
2023-04-19T18:22:54.015Z,100159.37
2023-04-19T18:25:25.770Z,100161.88
2023-04-19T18:27:57.617Z,100164.73
2023-04-19T18:30:31.157Z,100171.28
2023-04-19T18:33:02.794Z,100179.73
2023-04-19T18:35:37.863Z,100181.70
2023-04-19T18:38:11.366Z,100173.64
2023-04-19T18:40:43.776Z,100175.04
2023-04-19T18:43:16.420Z,100169.17
2023-04-19T18:45:56.571Z,100168.56
2023-04-19T18:48:29.480Z,100176.61
2023-04-19T18:51:01.527Z,100172.06
2023-04-19T18:53:33.430Z,100165.66
2023-04-19T18:56:09.117Z,100166.25
2023-04-19T18:58:42.686Z,100171.07
2023-04-19T19:01:15.679Z,100172.00
2023-04-19T19:04:10.660Z,100172.82
2023-04-19T19:06:22.268Z,100167.33
2023-04-19T19:08:55.471Z,100173.70
2023-04-19T19:11:51.821Z,100176.72
2023-04-19T19:14:00.401Z,100179.73
2023-04-19T19:16:32.565Z,100173.22
2023-04-19T19:19:04.604Z,100173.52
2023-04-19T19:21:36.566Z,100167.03
2023-04-19T19:24:08.819Z,100179.05
2023-04-19T19:26:41.080Z,100170.69
2023-04-19T19:29:16.276Z,100168.45
2023-04-19T19:31:46.286Z,100162.87
2023-04-19T19:34:25.756Z,100163.16
2023-04-19T19:36:52.436Z,100159.08
2023-04-19T19:39:24.666Z,100155.81
2023-04-19T19:42:05.836Z,100166.84
2023-04-19T19:44:30.331Z,100167.19
2023-04-19T19:47:01.946Z,100166.98
2023-04-19T19:49:51.966Z,100154.17
2023-04-19T19:52:09.227Z,100169.55
2023-04-19T19:54:41.155Z,100167.73
2023-04-19T19:58:01.571Z,100166.80
2023-04-19T19:59:51.739Z,100157.38
2023-04-19T20:02:21.734Z,100154.42
2023-04-19T20:04:54.604Z,100160.73
2023-04-19T20:07:47.609Z,100148.78
2023-04-19T20:10:00.414Z,100154.50
2023-04-19T20:12:32.285Z,100150.22
2023-04-19T20:15:05.887Z,100151.73
2023-04-19T20:17:40.501Z,100152.87
2023-04-19T20:20:13.074Z,100150.16
2023-04-19T20:22:44.870Z,100153.52
2023-04-19T20:25:16.426Z,100151.42
2023-04-19T20:27:48.097Z,100155.78
2023-04-19T20:30:19.638Z,100150.88
2023-04-19T20:32:51.437Z,100152.72
2023-04-19T20:35:23.177Z,100149.37
2023-04-19T20:37:54.808Z,100152.09
2023-04-19T20:40:26.378Z,100157.81
2023-04-19T20:42:57.926Z,100144.36
2023-04-19T20:45:30.040Z,100142.14
2023-04-19T20:48:01.726Z,100142.66
2023-04-19T20:50:33.724Z,100139.56
2023-04-19T20:53:05.751Z,100136.70
2023-04-19T20:55:38.341Z,100138.93
2023-04-19T20:58:10.910Z,100135.72
2023-04-19T21:00:42.485Z,100136.36
2023-04-19T21:03:14.346Z,100138.58
2023-04-19T21:05:46.331Z,100130.92
2023-04-19T21:08:19.026Z,100133.92
2023-04-19T21:10:50.646Z,100133.05
2023-04-19T21:13:23.922Z,100130.48
2023-04-19T21:15:55.815Z,100120.97
2023-04-19T21:18:29.173Z,100126.41
2023-04-19T21:21:00.869Z,100125.57
2023-04-19T21:23:32.804Z,100128.08
2023-04-19T21:26:04.868Z,100126.06
2023-04-19T21:28:37.110Z,100126.41
2023-04-19T21:31:08.760Z,100122.33
2023-04-19T21:33:40.689Z,100130.19
2023-04-19T21:36:12.300Z,100119.61
2023-04-19T21:38:44.109Z,100121.98
2023-04-19T21:41:16.104Z,100119.27
2023-04-19T21:43:47.649Z,100113.83
2023-04-19T21:46:19.266Z,100117.91
2023-04-19T21:48:51.458Z,100110.77
2023-04-19T21:51:24.100Z,100102.62
2023-04-19T21:53:55.608Z,100105.97
2023-04-19T21:56:27.104Z,100108.20
2023-04-19T21:58:58.752Z,100101.55
2023-04-19T22:01:30.283Z,100106.98
2023-04-19T22:04:02.381Z,100101.16
2023-04-19T22:06:34.152Z,100099.08
2023-04-19T22:09:06.110Z,100096.36
2023-04-19T22:11:38.301Z,100091.80
2023-04-19T22:14:09.964Z,100094.66
2023-04-19T22:16:42.275Z,100088.84
2023-04-19T22:19:15.584Z,100088.16
2023-04-19T22:21:47.766Z,100078.99
2023-04-19T22:24:19.444Z,100078.65
2023-04-19T22:26:53.065Z,100081.36
2023-04-19T22:29:24.666Z,100072.00
2023-04-19T22:31:57.274Z,100071.48
2023-04-19T22:34:28.902Z,100071.48
2023-04-19T22:37:00.594Z,100071.13
2023-04-19T22:39:32.379Z,100064.34
2023-04-19T22:42:04.228Z,100067.55
2023-04-19T22:44:37.375Z,100065.35
2023-04-19T22:47:08.886Z,100057.89
2023-04-19T22:49:43.137Z,100056.19
2023-04-19T22:52:15.718Z,100059.05
2023-04-19T22:54:47.244Z,100050.41
2023-04-19T22:57:18.756Z,100051.11
2023-04-19T22:59:50.327Z,100046.05
2023-04-19T23:02:22.415Z,100047.41
2023-04-19T23:04:54.450Z,100042.33
2023-04-19T23:07:26.145Z,100039.95
2023-04-19T23:09:57.740Z,100039.61
2023-04-19T23:12:31.192Z,100037.91
2023-04-19T23:15:03.938Z,100036.16
2023-04-19T23:17:36.206Z,100035.47
2023-04-19T23:20:13.056Z,100028.69
2023-04-19T23:22:44.676Z,100030.39
2023-04-19T23:25:16.477Z,100023.73
2023-04-19T23:27:49.562Z,100030.19
2023-04-19T23:30:21.388Z,100015.10
2023-04-19T23:32:53.040Z,100024.09
2023-04-19T23:35:24.832Z,100019.18
2023-04-19T23:37:56.386Z,100019.18
2023-04-19T23:40:27.905Z,100014.76
2023-04-19T23:42:59.396Z,100014.09
2023-04-19T23:45:31.360Z,100015.80
2023-04-19T23:48:03.079Z,100011.03
2023-04-19T23:50:34.636Z,100011.52
2023-04-19T23:53:07.270Z,100012.05
2023-04-19T23:55:38.798Z,100010.69
2023-04-19T23:58:10.599Z,100004.23
